createdAt,value
2022-12-20T00:00:15.034Z,3.30
2022-12-20T00:02:42.546Z,3.27
2022-12-20T00:05:10.223Z,3.47
2022-12-20T00:07:37.765Z,3.40
2022-12-20T00:10:07.696Z,2.93
2022-12-20T00:12:35.230Z,3.57
2022-12-20T00:15:02.695Z,3.30
2022-12-20T00:17:30.284Z,3.17
2022-12-20T00:19:57.765Z,3.03
2022-12-20T00:22:25.236Z,3.13
2022-12-20T00:24:52.720Z,3.17
2022-12-20T00:27:21.579Z,3.00
2022-12-20T00:29:49.103Z,3.00
2022-12-20T00:32:16.534Z,2.80
2022-12-20T00:34:43.993Z,3.10
2022-12-20T00:37:11.459Z,3.60
2022-12-20T00:39:38.904Z,2.73
2022-12-20T00:42:07.026Z,3.03
2022-12-20T00:44:36.009Z,3.10
2022-12-20T00:47:03.507Z,3.27
2022-12-20T00:49:31.093Z,3.20
2022-12-20T00:51:58.585Z,3.10
2022-12-20T00:54:26.011Z,3.60
2022-12-20T00:56:53.493Z,3.63
2022-12-20T00:59:21.381Z,3.10
2022-12-20T01:01:50.444Z,3.63
2022-12-20T01:04:18.275Z,3.30
2022-12-20T01:06:45.823Z,3.37
2022-12-20T01:09:13.732Z,4.00
2022-12-20T01:11:41.198Z,3.67
2022-12-20T01:14:11.385Z,4.10
2022-12-20T01:16:39.765Z,3.80
2022-12-20T01:19:10.343Z,4.23
2022-12-20T01:21:39.783Z,4.40
2022-12-20T01:24:07.358Z,4.80
2022-12-20T01:26:34.871Z,4.57
2022-12-20T01:29:02.345Z,4.63
2022-12-20T01:31:30.760Z,4.73
2022-12-20T01:33:58.471Z,4.80
2022-12-20T01:36:28.289Z,4.93
2022-12-20T01:38:57.233Z,5.27
2022-12-20T01:41:25.097Z,5.40
2022-12-20T01:43:53.567Z,5.30
2022-12-20T01:46:21.857Z,5.47
2022-12-20T01:48:51.847Z,5.20
2022-12-20T01:51:20.059Z,5.27
2022-12-20T01:53:49.969Z,4.80
2022-12-20T01:56:17.494Z,4.77
2022-12-20T01:58:45.952Z,4.97
2022-12-20T02:01:13.657Z,5.20
2022-12-20T02:03:41.828Z,5.30
2022-12-20T02:06:16.629Z,5.33
2022-12-20T02:08:44.908Z,5.30
2022-12-20T02:11:19.379Z,5.40
2022-12-20T02:13:50.540Z,5.10
2022-12-20T02:16:23.435Z,5.30
2022-12-20T02:18:54.273Z,5.00
2022-12-20T02:21:25.097Z,5.00
2022-12-20T02:24:22.434Z,5.50
2022-12-20T02:27:10.839Z,5.60
2022-12-20T02:29:41.758Z,5.50
2022-12-20T02:32:16.008Z,5.30
2022-12-20T02:34:43.925Z,4.73
2022-12-20T02:37:11.754Z,5.30
2022-12-20T02:39:40.795Z,4.93
2022-12-20T02:42:09.979Z,4.90
2022-12-20T02:44:56.597Z,4.70
2022-12-20T02:47:27.400Z,4.70
2022-12-20T02:49:55.376Z,4.77
2022-12-20T02:52:25.195Z,5.17
2022-12-20T02:54:52.743Z,4.87
2022-12-20T02:57:22.474Z,5.30
2022-12-20T02:59:51.685Z,5.30
2022-12-20T03:02:19.943Z,5.20
2022-12-20T03:04:49.847Z,5.47
2022-12-20T03:07:17.553Z,5.80
2022-12-20T03:09:46.005Z,5.60
2022-12-20T03:12:14.262Z,5.17
2022-12-20T03:14:41.753Z,5.47
2022-12-20T03:17:09.839Z,5.93
2022-12-20T03:19:37.394Z,6.30
2022-12-20T03:22:06.430Z,6.10
2022-12-20T03:24:34.170Z,6.17
2022-12-20T03:27:01.621Z,5.47
2022-12-20T03:29:29.181Z,6.60
2022-12-20T03:31:56.685Z,6.10
2022-12-20T03:34:24.363Z,6.40
2022-12-20T03:36:51.800Z,6.00
2022-12-20T03:39:20.845Z,5.90
2022-12-20T03:41:48.317Z,6.57
2022-12-20T03:44:15.764Z,6.37
2022-12-20T03:46:43.420Z,5.90
2022-12-20T03:49:10.874Z,5.93
2022-12-20T03:51:38.337Z,6.80
2022-12-20T03:54:05.791Z,6.30
2022-12-20T03:56:34.623Z,6.80
2022-12-20T03:59:02.359Z,6.57
2022-12-20T04:01:30.482Z,6.37
2022-12-20T04:03:58.102Z,7.13
2022-12-20T04:06:25.572Z,6.87
2022-12-20T04:08:52.995Z,6.10
2022-12-20T04:11:20.525Z,6.93
2022-12-20T04:13:49.954Z,6.70
2022-12-20T04:16:18.826Z,6.70
2022-12-20T04:18:46.431Z,5.97
2022-12-20T04:21:14.109Z,6.03
2022-12-20T04:23:42.475Z,6.30
2022-12-20T04:26:10.782Z,6.87
2022-12-20T04:28:38.328Z,6.20
2022-12-20T04:31:07.356Z,6.30
2022-12-20T04:33:34.826Z,5.87
2022-12-20T04:36:02.375Z,5.70
2022-12-20T04:38:29.800Z,6.57
2022-12-20T04:40:57.330Z,6.37
2022-12-20T04:43:25.482Z,6.80
2022-12-20T04:45:56.221Z,7.70
2022-12-20T04:51:14.625Z,6.90
2022-12-20T04:53:49.959Z,6.67
2022-12-20T04:56:18.493Z,6.70
2022-12-20T04:58:46.383Z,6.53
2022-12-20T05:01:14.083Z,6.30
2022-12-20T05:03:43.235Z,6.53
2022-12-20T05:06:11.107Z,7.03
2022-12-20T05:08:38.741Z,6.60
2022-12-20T05:11:06.775Z,6.93
2022-12-20T05:13:34.233Z,6.73
2022-12-20T05:16:01.738Z,6.87
2022-12-20T05:18:29.509Z,6.60
2022-12-20T05:21:16.712Z,6.70
2022-12-20T05:24:01.504Z,6.97
2022-12-20T05:26:30.723Z,7.27
2022-12-20T05:28:58.231Z,6.67
2022-12-20T05:31:25.758Z,6.83
2022-12-20T05:33:54.152Z,7.20
2022-12-20T05:36:22.982Z,7.10
2022-12-20T05:38:50.513Z,6.97
2022-12-20T05:41:17.911Z,7.17
2022-12-20T05:43:45.387Z,7.10
2022-12-20T05:46:12.864Z,6.67
2022-12-20T05:48:40.358Z,6.50
2022-12-20T05:51:08.058Z,7.40
2022-12-20T05:53:36.977Z,6.53
2022-12-20T05:56:04.744Z,7.30
2022-12-20T05:58:32.351Z,6.33
2022-12-20T06:01:01.392Z,7.20
2022-12-20T06:03:28.953Z,6.90
2022-12-20T06:05:56.484Z,5.83
2022-12-20T06:08:24.957Z,6.80
2022-12-20T06:10:53.768Z,6.40
2022-12-20T06:13:21.362Z,6.77
2022-12-20T06:15:48.883Z,5.97
2022-12-20T06:18:16.314Z,6.13
2022-12-20T06:20:43.795Z,6.70
2022-12-20T06:23:11.220Z,5.50
2022-12-20T06:25:39.781Z,5.80
2022-12-20T06:28:08.763Z,6.77
2022-12-20T06:30:36.495Z,6.17
2022-12-20T06:33:04.100Z,5.97
2022-12-20T06:35:31.789Z,5.83
2022-12-20T06:37:59.169Z,6.37
2022-12-20T06:40:26.554Z,5.97
2022-12-20T06:42:53.990Z,5.93
2022-12-20T06:45:22.798Z,5.80
2022-12-20T06:47:50.243Z,6.53
2022-12-20T06:50:17.690Z,6.23
2022-12-20T06:52:45.269Z,6.07
2022-12-20T06:55:12.673Z,5.40
2022-12-20T06:57:40.112Z,5.50
2022-12-20T07:00:10.592Z,5.90
2022-12-20T07:02:39.863Z,6.10
2022-12-20T07:05:07.529Z,6.20
2022-12-20T07:07:40.215Z,5.60
2022-12-20T07:10:11.904Z,5.87
2022-12-20T07:12:45.458Z,5.97
2022-12-20T07:15:15.276Z,5.60
2022-12-20T07:17:44.169Z,5.40
2022-12-20T07:20:13.950Z,5.60
2022-12-20T07:22:42.172Z,5.23
2022-12-20T07:25:09.712Z,5.70
2022-12-20T07:27:37.095Z,5.53
2022-12-20T07:30:05.092Z,5.20
2022-12-20T07:32:32.585Z,5.30
2022-12-20T07:35:01.759Z,5.40
2022-12-20T07:37:29.495Z,5.47
2022-12-20T07:39:57.007Z,5.20
2022-12-20T07:42:31.961Z,5.80
2022-12-20T07:45:03.468Z,6.00
2022-12-20T07:47:30.854Z,7.40
2022-12-20T07:49:58.368Z,8.40
2022-12-20T07:52:29.076Z,6.60
2022-12-20T07:54:58.519Z,5.63
2022-12-20T07:57:28.723Z,6.60
2022-12-20T07:59:58.291Z,6.20
2022-12-20T08:02:28.797Z,5.30
2022-12-20T08:04:56.568Z,5.67
2022-12-20T08:07:24.268Z,5.30
2022-12-20T08:09:53.086Z,5.90
2022-12-20T08:12:21.659Z,5.80
2022-12-20T08:14:52.272Z,5.90
2022-12-20T08:17:19.792Z,6.27
2022-12-20T08:19:47.510Z,6.47
2022-12-20T08:22:14.934Z,5.30
2022-12-20T08:24:42.401Z,6.00
2022-12-20T08:27:11.176Z,6.20
2022-12-20T08:29:38.585Z,5.20
2022-12-20T08:32:06.103Z,5.10
2022-12-20T08:34:33.682Z,5.00
2022-12-20T08:37:01.097Z,5.30
2022-12-20T08:39:28.563Z,4.33
2022-12-20T08:41:55.962Z,6.57
2022-12-20T08:44:25.456Z,4.87
2022-12-20T08:46:54.121Z,5.67
2022-12-20T08:49:21.593Z,5.23
2022-12-20T08:51:49.180Z,4.80
2022-12-20T08:54:17.489Z,4.93
2022-12-20T08:56:44.952Z,5.13
2022-12-20T08:59:12.364Z,5.87
2022-12-20T09:01:41.319Z,6.80
2022-12-20T09:04:10.864Z,4.90
2022-12-20T09:06:38.574Z,5.47
2022-12-20T09:09:06.994Z,5.57
2022-12-20T09:11:34.718Z,5.43
2022-12-20T09:14:02.492Z,4.70
2022-12-20T09:16:31.347Z,5.00
2022-12-20T09:19:05.512Z,5.80
2022-12-20T09:21:34.080Z,4.90
2022-12-20T09:24:01.820Z,5.20
2022-12-20T09:26:30.542Z,4.90
2022-12-20T09:28:57.932Z,4.63
2022-12-20T09:31:27.052Z,4.80
2022-12-20T09:33:55.697Z,5.20
2022-12-20T09:36:25.046Z,4.53
2022-12-20T09:38:52.801Z,5.17
2022-12-20T09:41:31.002Z,4.80
2022-12-20T09:43:58.779Z,4.70
2022-12-20T09:46:26.539Z,4.47
2022-12-20T09:48:54.567Z,4.73
2022-12-20T09:51:29.767Z,4.80
2022-12-20T09:54:00.671Z,4.77
2022-12-20T09:56:29.132Z,4.63
2022-12-20T09:59:01.552Z,4.90
2022-12-20T10:01:36.291Z,4.90
2022-12-20T10:04:07.486Z,4.93
2022-12-20T10:06:45.037Z,5.07
2022-12-20T10:09:17.513Z,5.70
2022-12-20T10:11:51.192Z,5.43
2022-12-20T10:14:26.652Z,5.53
2022-12-20T10:16:56.821Z,6.63
2022-12-20T10:19:35.376Z,7.87
2022-12-20T10:22:08.197Z,7.60
2022-12-20T10:24:36.681Z,6.83
2022-12-20T10:27:08.486Z,7.40
2022-12-20T10:29:36.035Z,7.90
2022-12-20T10:32:04.454Z,11.40
2022-12-20T10:34:37.512Z,13.13
2022-12-20T10:37:15.929Z,8.20
2022-12-20T10:39:44.262Z,6.50
2022-12-20T10:42:31.661Z,6.40
2022-12-20T10:44:59.288Z,5.80
2022-12-20T10:47:33.330Z,7.30
2022-12-20T10:50:09.444Z,5.53
2022-12-20T10:52:38.738Z,4.60
2022-12-20T10:55:28.228Z,6.10
2022-12-20T10:57:55.653Z,5.47
2022-12-20T11:00:29.619Z,5.37
2022-12-20T11:03:04.226Z,5.37
2022-12-20T11:05:31.939Z,5.90
2022-12-20T11:08:34.793Z,5.53
2022-12-20T11:10:48.922Z,6.37
2022-12-20T11:13:21.121Z,5.50
2022-12-20T11:15:51.050Z,6.97
2022-12-20T11:18:23.091Z,7.37
2022-12-20T11:20:55.476Z,6.90
2022-12-20T11:23:28.469Z,6.93
2022-12-20T11:26:01.818Z,7.70
2022-12-20T11:28:38.084Z,6.60
2022-12-20T11:31:10.812Z,6.57
2022-12-20T11:33:46.399Z,6.57
2022-12-20T11:36:18.905Z,5.60
2022-12-20T11:38:49.291Z,6.37
2022-12-20T11:41:22.464Z,5.57
2022-12-20T11:44:24.011Z,4.97
2022-12-20T11:46:53.445Z,4.70
2022-12-20T11:49:38.650Z,4.93
2022-12-20T11:52:09.638Z,4.47
2022-12-20T11:54:42.196Z,4.60
2022-12-20T11:57:14.659Z,5.20
2022-12-20T11:59:44.777Z,5.53
2022-12-20T12:02:14.023Z,4.90
2022-12-20T12:04:43.541Z,5.40
2022-12-20T12:07:13.531Z,6.97
2022-12-20T12:09:46.440Z,4.03
2022-12-20T12:12:20.348Z,4.70
2022-12-20T12:14:51.226Z,5.37
2022-12-20T12:17:22.879Z,4.50
2022-12-20T12:19:51.587Z,4.90
2022-12-20T12:22:23.381Z,4.30
2022-12-20T12:24:54.026Z,4.33
2022-12-20T12:27:23.529Z,4.50
2022-12-20T12:29:50.959Z,4.00
2022-12-20T12:32:21.839Z,3.93
2022-12-20T12:34:56.689Z,4.37
2022-12-20T12:37:38.226Z,4.50
2022-12-20T12:40:29.627Z,5.00
2022-12-20T12:43:09.039Z,4.80
2022-12-20T12:45:38.665Z,5.97
2022-12-20T12:48:09.333Z,6.67
2022-12-20T12:50:38.837Z,5.40
2022-12-20T12:53:08.810Z,5.07
2022-12-20T12:55:37.404Z,5.17
2022-12-20T12:58:16.857Z,5.00
2022-12-20T13:00:51.626Z,5.90
2022-12-20T13:03:37.326Z,5.10
2022-12-20T13:06:19.771Z,5.40
2022-12-20T13:08:51.435Z,5.70
2022-12-20T13:11:29.629Z,5.03
2022-12-20T13:19:39.521Z,3.53
2022-12-20T13:22:21.929Z,3.60
2022-12-20T13:24:56.303Z,3.73
2022-12-20T13:27:28.419Z,3.97
2022-12-20T13:30:22.062Z,3.80
2022-12-20T13:32:58.649Z,4.50
2022-12-20T13:35:30.094Z,4.17
2022-12-20T13:37:59.052Z,4.30
2022-12-20T13:40:31.441Z,4.50
2022-12-20T13:43:00.126Z,3.83
2022-12-20T13:45:27.631Z,4.13
2022-12-20T13:47:57.379Z,4.00
2022-12-20T13:50:38.592Z,3.93
2022-12-20T13:53:06.334Z,3.43
2022-12-20T13:55:35.827Z,4.30
2022-12-20T13:58:07.379Z,3.50
2022-12-20T14:00:35.116Z,3.27
2022-12-20T14:03:03.114Z,3.80
2022-12-20T14:05:35.523Z,3.50
2022-12-20T14:08:03.959Z,3.63
2022-12-20T14:10:32.535Z,3.33
2022-12-20T14:13:00.542Z,3.87
2022-12-20T14:15:30.223Z,3.43
2022-12-20T14:17:58.411Z,5.53
2022-12-20T14:20:29.287Z,6.00
2022-12-20T14:23:05.054Z,6.30
2022-12-20T14:25:35.945Z,4.50
2022-12-20T14:28:03.786Z,4.20
2022-12-20T14:30:36.837Z,4.77
2022-12-20T14:33:04.413Z,4.83
2022-12-20T14:35:31.901Z,4.53
2022-12-20T14:38:02.273Z,4.40
2022-12-20T14:40:30.000Z,4.70
2022-12-20T14:42:57.860Z,4.43
2022-12-20T14:45:26.726Z,3.90
2022-12-20T14:47:59.301Z,3.73
2022-12-20T14:50:29.423Z,5.37
2022-12-20T14:52:57.473Z,4.60
2022-12-20T14:55:27.826Z,5.10
2022-12-20T14:57:56.654Z,5.33
2022-12-20T15:00:25.263Z,7.20
2022-12-20T15:02:59.539Z,5.80
2022-12-20T15:05:38.322Z,5.07
2022-12-20T15:08:13.513Z,5.83
2022-12-20T15:10:43.001Z,5.50
2022-12-20T15:13:12.888Z,7.43
2022-12-20T15:15:40.696Z,5.60
2022-12-20T15:18:11.798Z,6.10
2022-12-20T15:20:39.300Z,6.43
2022-12-20T15:23:06.940Z,5.70
2022-12-20T15:25:42.726Z,7.33
2022-12-20T15:28:19.635Z,6.57
2022-12-20T15:30:47.770Z,5.90
2022-12-20T15:33:19.538Z,5.67
2022-12-20T15:35:47.405Z,5.00
2022-12-20T15:38:17.400Z,5.00
2022-12-20T15:40:45.695Z,5.27
2022-12-20T15:43:14.077Z,5.73
2022-12-20T15:45:43.718Z,5.50
2022-12-20T15:48:18.527Z,4.50
2022-12-20T15:50:48.921Z,5.67
2022-12-20T15:53:17.467Z,5.77
2022-12-20T15:55:45.317Z,5.63
2022-12-20T15:58:12.809Z,6.30
2022-12-20T16:00:41.754Z,5.53
2022-12-20T16:03:15.111Z,5.80
2022-12-20T16:05:43.016Z,5.67
2022-12-20T16:08:10.397Z,5.97
2022-12-20T16:10:38.044Z,5.67
2022-12-20T16:13:07.384Z,6.13
2022-12-20T16:15:35.351Z,8.40
2022-12-20T16:18:02.990Z,7.93
2022-12-20T16:20:31.768Z,8.20
2022-12-20T16:22:59.185Z,7.67
2022-12-20T16:25:28.335Z,6.70
2022-12-20T16:27:55.753Z,6.80
2022-12-20T16:30:23.563Z,6.20
2022-12-20T16:32:51.126Z,6.60
2022-12-20T16:35:24.203Z,5.70
2022-12-20T16:37:53.145Z,5.63
2022-12-20T16:40:20.689Z,6.87
2022-12-20T16:42:48.139Z,5.80
2022-12-20T16:45:18.600Z,5.43
2022-12-20T16:47:46.583Z,5.70
2022-12-20T16:50:14.581Z,6.03
2022-12-20T16:52:42.288Z,5.67
2022-12-20T16:55:14.964Z,5.40
2022-12-20T16:57:42.553Z,5.83
2022-12-20T17:00:13.684Z,6.90
2022-12-20T17:02:41.206Z,9.23
2022-12-20T17:05:13.625Z,9.93
2022-12-20T17:07:41.778Z,11.90
2022-12-20T17:10:10.722Z,10.00
2022-12-20T17:12:40.031Z,11.40
2022-12-20T17:15:10.042Z,10.57
2022-12-20T17:17:37.592Z,9.43
2022-12-20T17:20:05.274Z,8.77
2022-12-20T17:22:32.890Z,8.50
2022-12-20T17:25:00.366Z,9.07
2022-12-20T17:27:27.916Z,9.03
2022-12-20T17:29:56.693Z,8.30
2022-12-20T17:32:25.957Z,9.37
2022-12-20T17:34:54.307Z,8.73
2022-12-20T17:37:21.927Z,8.33
2022-12-20T17:39:49.469Z,7.40
2022-12-20T17:42:17.345Z,7.13
2022-12-20T17:44:46.142Z,7.50
2022-12-20T17:47:16.966Z,7.37
2022-12-20T17:49:44.429Z,6.90
2022-12-20T17:52:13.488Z,7.40
2022-12-20T17:54:40.999Z,7.00
2022-12-20T17:57:13.546Z,6.93
2022-12-20T17:59:40.961Z,7.63
2022-12-20T18:02:15.923Z,6.23
2022-12-20T18:04:44.959Z,7.77
2022-12-20T18:07:12.557Z,8.40
2022-12-20T18:09:39.956Z,8.80
2022-12-20T18:12:07.573Z,9.33
2022-12-20T18:14:34.940Z,9.33
2022-12-20T18:17:02.510Z,9.40
2022-12-20T18:19:29.960Z,10.60
2022-12-20T18:22:00.003Z,10.30
2022-12-20T18:24:27.579Z,10.30
2022-12-20T18:26:55.078Z,8.83
2022-12-20T18:29:22.501Z,9.30
2022-12-20T18:31:49.958Z,9.10
2022-12-20T18:34:17.393Z,7.60
2022-12-20T18:36:44.799Z,7.50
2022-12-20T18:39:13.944Z,7.40
2022-12-20T18:41:42.925Z,7.90
2022-12-20T18:44:11.253Z,7.47
2022-12-20T18:46:38.825Z,8.53
2022-12-20T18:49:06.475Z,9.77
2022-12-20T18:51:36.671Z,9.00
2022-12-20T18:54:05.797Z,9.20
2022-12-20T18:56:35.364Z,8.73
2022-12-20T18:59:10.826Z,7.77
2022-12-20T19:01:40.397Z,7.80
2022-12-20T19:04:08.598Z,8.53
2022-12-20T19:06:36.458Z,8.13
2022-12-20T19:09:04.812Z,8.03
2022-12-20T19:11:32.793Z,7.97
2022-12-20T19:14:01.800Z,7.80
2022-12-20T19:16:32.435Z,8.60
2022-12-20T19:19:00.523Z,8.57
2022-12-20T19:21:28.927Z,8.83
2022-12-20T19:23:57.593Z,8.20
2022-12-20T19:26:27.203Z,9.10
2022-12-20T19:28:55.230Z,9.13
2022-12-20T19:31:24.826Z,9.00
2022-12-20T19:33:53.252Z,7.90
2022-12-20T19:36:22.174Z,7.87
2022-12-20T19:38:51.196Z,7.30
2022-12-20T19:41:19.247Z,8.27
2022-12-20T19:43:48.127Z,8.20
2022-12-20T19:46:16.314Z,7.80
2022-12-20T19:48:45.101Z,8.10
2022-12-20T19:51:13.336Z,7.80
2022-12-20T19:53:42.221Z,8.10
2022-12-20T19:56:09.976Z,8.00
2022-12-20T19:58:37.715Z,8.40
2022-12-20T20:01:05.351Z,8.03
2022-12-20T20:03:33.563Z,8.60
2022-12-20T20:06:02.455Z,8.47
2022-12-20T20:08:29.953Z,8.57
2022-12-20T20:10:58.279Z,8.73
2022-12-20T20:13:27.137Z,8.87
2022-12-20T20:15:55.420Z,8.50
2022-12-20T20:18:23.254Z,7.93
2022-12-20T20:20:50.772Z,8.93
2022-12-20T20:23:19.665Z,8.47
2022-12-20T20:25:47.525Z,8.40
2022-12-20T20:28:14.940Z,7.70
2022-12-20T20:30:42.627Z,8.33
2022-12-20T20:33:12.100Z,7.77
2022-12-20T20:35:40.072Z,8.13
2022-12-20T20:38:07.953Z,7.70
2022-12-20T20:40:36.758Z,8.17
2022-12-20T20:43:04.249Z,8.70
2022-12-20T20:45:31.712Z,9.00
2022-12-20T20:48:04.009Z,9.50
2022-12-20T20:50:33.365Z,9.17
2022-12-20T20:53:00.798Z,9.13
2022-12-20T20:55:28.201Z,9.50
2022-12-20T20:57:56.972Z,8.83
2022-12-20T21:00:25.211Z,8.93
2022-12-20T21:02:52.963Z,7.80
2022-12-20T21:06:21.108Z,8.40
2022-12-20T21:08:07.845Z,8.63
2022-12-20T21:10:35.922Z,7.83
2022-12-20T21:13:05.720Z,8.80
2022-12-20T21:15:34.216Z,7.43
2022-12-20T21:18:02.003Z,8.30
2022-12-20T21:20:29.496Z,8.77
2022-12-20T21:22:58.204Z,9.03
2022-12-20T21:25:25.596Z,8.90
2022-12-20T21:27:53.174Z,8.20
2022-12-20T21:30:21.945Z,8.60
2022-12-20T21:32:49.377Z,9.63
2022-12-20T21:35:17.072Z,9.47
2022-12-20T21:37:44.522Z,9.03
2022-12-20T21:40:12.400Z,9.10
2022-12-20T21:42:39.812Z,8.97
2022-12-20T21:45:07.961Z,8.90
2022-12-20T21:47:37.003Z,8.63
2022-12-20T21:50:05.372Z,8.87
2022-12-20T21:52:32.807Z,9.03
2022-12-20T21:55:00.209Z,9.57
2022-12-20T21:57:27.658Z,8.63
2022-12-20T21:59:55.128Z,8.40
2022-12-20T22:02:22.668Z,7.20
2022-12-20T22:04:51.557Z,8.47
2022-12-20T22:07:18.940Z,8.17
2022-12-20T22:09:46.372Z,8.20
2022-12-20T22:12:13.835Z,9.03
2022-12-20T22:14:41.280Z,9.37
2022-12-20T22:17:08.657Z,8.10
2022-12-20T22:19:37.049Z,8.60
2022-12-20T22:22:06.794Z,8.97
2022-12-20T22:24:37.217Z,8.67
2022-12-20T22:27:11.028Z,9.20
2022-12-20T22:29:39.159Z,9.87
2022-12-20T22:32:06.670Z,7.10
2022-12-20T22:34:34.407Z,8.80
2022-12-20T22:37:01.844Z,7.93
2022-12-20T22:39:30.596Z,7.10
2022-12-20T22:41:58.027Z,9.20
2022-12-20T22:44:25.670Z,8.40
2022-12-20T22:46:53.051Z,9.87
2022-12-20T22:49:20.540Z,7.47
2022-12-20T22:51:59.351Z,9.30
2022-12-20T22:54:34.966Z,8.50
2022-12-20T22:57:02.450Z,7.90
2022-12-20T22:59:30.087Z,8.00
2022-12-20T23:01:57.778Z,9.13
2022-12-20T23:04:25.521Z,9.30
2022-12-20T23:06:53.108Z,9.07
2022-12-20T23:09:20.847Z,7.70
2022-12-20T23:12:07.442Z,9.60
2022-12-20T23:14:52.406Z,8.70
2022-12-20T23:17:19.878Z,9.20
2022-12-20T23:20:05.013Z,9.03
2022-12-20T23:22:41.180Z,8.37
2022-12-20T23:25:09.542Z,10.00
2022-12-20T23:27:38.547Z,9.50
2022-12-20T23:30:06.873Z,6.97
2022-12-20T23:32:34.348Z,7.93
2022-12-20T23:35:05.524Z,8.93
2022-12-20T23:37:36.083Z,7.07
2022-12-20T23:40:03.647Z,8.27
2022-12-20T23:42:31.147Z,7.77
2022-12-20T23:44:59.907Z,7.50
2022-12-20T23:47:27.379Z,6.30
2022-12-20T23:49:54.820Z,5.87
2022-12-20T23:52:22.393Z,6.63
2022-12-20T23:54:49.769Z,6.67
2022-12-20T23:57:17.410Z,6.50
2022-12-20T23:59:44.871Z,6.30
